NCAR-RAP Real-Time Weather Data

Output produced by METARs form (12 August 2020  18:41 UTC)
found at http://weather.rap.ucar.edu/surface/
 
KDFW 121753Z 25008KT 10SM FEW001 FEW040 FEW100 SCT300 36/23 A2993 RMK AO2 SLP124 FU FEW001 W T03610233 10361 20278 58002
KDFW 121653Z 20012G16KT 10SM FEW070 SCT300 35/24 A2994 RMK AO2 SLP127 T03500239
KDFW 121553Z 22008KT 10SM SCT300 33/24 A2993 RMK AO2 SLP125 T03280239
KDFW 121453Z 22010KT 10SM SCT300 31/23 A2994 RMK AO2 SLP126 T03060233 50012
KDFW 121353Z 20011KT 10SM FEW070 SCT300 29/23 A2994 RMK AO2 SLP126 T02940233
KDFW 121253Z 20013KT 10SM FEW070 FEW300 28/23 A2991 RMK AO2 SLP118 T02830233
KDFW 121153Z 20011KT 10SM FEW065 FEW300 28/23 A2990 RMK AO2 SLP114 CB DSNT NE MOV SE T02780228 10311 20278 53009
KDFW 121053Z 20014KT 10SM FEW300 28/23 A2988 RMK AO2 SLP109 T02830228
KDFW 120953Z 20014KT 10SM CLR 29/23 A2987 RMK AO2 SLP105 T02890233
KDFW 120853Z 19016KT 10SM CLR 29/23 A2987 RMK AO2 SLP105 T02940233 55006
KDFW 120753Z 19015G23KT 10SM CLR 30/23 A2987 RMK AO2 PK WND 20026/0732 SLP104 T03000228
KDFW 120653Z 19017G24KT 10SM CLR 31/23 A2988 RMK AO2 SLP108 T03060228
KDFW 120553Z 17012KT 10SM FEW250 31/22 A2989 RMK AO2 SLP112 T03110217 10356 20311 403670267 51006
KDFW 120453Z 16011KT 10SM FEW065 FEW250 32/21 A2989 RMK AO2 SLP111 CONS LTGICCC DSNT NE CB DSNT NE MOV SE T03170211
KDFW 120353Z 14009KT 10SM FEW065 FEW250 32/21 A2988 RMK AO2 SLP108 CONS LTGICCC DSNT NE CB DSNT NE MOV SE T03220211
KDFW 120253Z 14009KT 10SM CLR 33/21 A2987 RMK AO2 SLP105 T03280206 53009
KDFW 120153Z 15008KT 10SM FEW065 FEW250 33/20 A2986 RMK AO2 SLP100 CB DSNT N-NE MOV SE T03330200
KDFW 120053Z 15009KT 10SM FEW065 FEW250 35/21 A2985 RMK AO2 SLP097 CB DSNT N-NE MOV SE T03500206
KDFW 112353Z 17011KT 10SM FEW065 FEW250 36/20 A2984 RMK AO2 SLP095 CB DSNT NE MOV SE T03560200 10367 20344 56012
KDFW 112253Z 21009KT 10SM FEW065 37/21 A2985 RMK AO2 SLP096 T03670211
KDFW 112153Z 20013G19KT 10SM SCT065 37/22 A2986 RMK AO2 SLP100 CB DSNT NE MOV SE T03670217
KDFW 112053Z 19009G18KT 10SM SCT060 36/22 A2988 RMK AO2 PK WND 19026/1959 SLP107 CB DSNT NE T03610222 56021
KDFW 111953Z 19009G20KT 10SM SCT050 BKN250 36/22 A2990 RMK AO2 PK WND 21029/1934 SLP113 T03610222
KDFW 111853Z 15010G19KT 10SM SCT050 SCT250 35/23 A2992 RMK AO2 SLP120 T03500233
KDFW 111753Z 19010KT 10SM SCT044 SCT250 34/23 A2995 RMK AO2 SLP129 T03440233 10344 20272 58009
KDFW 111653Z 20013G19KT 10SM FEW035 FEW250 33/24 A2996 RMK AO2 SLP134 T03280239
KDFW 111553Z 19010KT 10SM FEW030 FEW250 31/24 A2997 RMK AO2 SLP138 T03110239
KDFW 111453Z 19011G19KT 10SM FEW005 FEW020 SCT250 30/24 A2997 RMK AO2 SLP139 FU FEW005 NW T03000239 50009
KDFW 111353Z 20012KT 10SM FEW020 FEW100 SCT250 28/23 A2998 RMK AO2 SLP140 T02830233
KDFW 111253Z 20011KT 10SM FEW100 SCT180 BKN250 27/23 A2996 RMK AO2 SLP135 ACC NW-N T02720228
KDFW 111153Z 19014KT 10SM FEW180 BKN250 27/23 A2994 RMK AO2 SLP129 ACC DSNT NW T02720228 10306 20267 53005
KDFW 111053Z 18012KT 10SM FEW180 SCT300 27/23 A2992 RMK AO2 SLP122 T02720228
KDFW 110953Z 19012KT 10SM FEW180 FEW300 28/23 A2993 RMK AO2 SLP124 T02780228
KDFW 110853Z 19014KT 10SM FEW300 29/23 A2993 RMK AO2 SLP124 T02890228 55001
KDFW 110753Z 19015KT 10SM CLR 29/23 A2992 RMK AO2 SLP122 T02940228
KDFW 110653Z 18012KT 10SM CLR 29/23 A2992 RMK AO2 SLP121 T02940228
KDFW 110553Z 17015KT 10SM CLR 31/22 A2993 RMK AO2 SLP125 T03060217 10356 20306 403670261 51016
KDFW 110453Z 17014G20KT 10SM CLR 31/21 A2993 RMK AO2 SLP123 T03110211
KDFW 110353Z 15010KT 10SM CLR 32/20 A2992 RMK AO2 SLP121 T03170200
KDFW 110253Z 14008KT 10SM CLR 32/19 A2988 RMK AO2 SLP109 T03170194 53002
KDFW 110153Z 16009KT 10SM FEW060 33/19 A2987 RMK AO2 SLP104 T03330194
KDFW 110053Z 17012G20KT 10SM CLR 34/19 A2987 RMK AO2 SLP104 T03440194
KDFW 102353Z 17015KT 10SM FEW060 36/19 A2988 RMK AO2 SLP106 T03560194 10367 20339 56020
KDFW 102253Z 18016G21KT 10SM FEW060 36/19 A2990 RMK AO2 SLP113 T03610194
KDFW 102153Z 16014G23KT 10SM FEW060 37/20 A2992 RMK AO2 SLP120 T03670200
KDFW 102053Z 17016G22KT 10SM FEW060 36/20 A2994 RMK AO2 SLP127 T03610200 58026
KDFW 101953Z 20014G23KT 10SM FEW060 36/21 A2997 RMK AO2 PK WND 20026/1854 SLP137 T03610206
KDFW 101853Z 18014G23KT 10SM FEW050 35/21 A2999 RMK AO2 SLP145 T03500211